sensor_id;sensor_type;location;lat;lon;timestamp;P1;durP1;ratioP1;P2;durP2;ratioP2
16304;SDS011;8261;47.678;-122.174;2022-10-16T00:02:21;89.67;;;75.17;;
16304;SDS011;8261;47.678;-122.174;2022-10-16T00:04:53;88.30;;;75.60;;
16304;SDS011;8261;47.678;-122.174;2022-10-16T00:07:25;89.73;;;77.10;;
16304;SDS011;8261;47.678;-122.174;2022-10-16T00:09:59;91.97;;;78.00;;
16304;SDS011;8261;47.678;-122.174;2022-10-16T00:12:31;92.47;;;77.87;;
16304;SDS011;8261;47.678;-122.174;2022-10-16T00:15:03;92.47;;;77.97;;
16304;SDS011;8261;47.678;-122.174;2022-10-16T00:17:36;96.57;;;80.50;;
16304;SDS011;8261;47.678;-122.174;2022-10-16T00:20:07;101.30;;;83.33;;
16304;SDS011;8261;47.678;-122.174;2022-10-16T00:22:39;101.90;;;86.70;;
16304;SDS011;8261;47.678;-122.174;2022-10-16T00:25:12;105.13;;;87.77;;
16304;SDS011;8261;47.678;-122.174;2022-10-16T00:27:44;108.97;;;87.23;;
16304;SDS011;8261;47.678;-122.174;2022-10-16T00:30:16;100.97;;;85.33;;
16304;SDS011;8261;47.678;-122.174;2022-10-16T00:32:47;111.77;;;88.37;;
16304;SDS011;8261;47.678;-122.174;2022-10-16T00:35:18;109.87;;;91.07;;
16304;SDS011;8261;47.678;-122.174;2022-10-16T00:37:49;117.10;;;94.83;;
16304;SDS011;8261;47.678;-122.174;2022-10-16T00:40:22;112.13;;;93.80;;
16304;SDS011;8261;47.678;-122.174;2022-10-16T00:42:53;121.93;;;99.83;;
16304;SDS011;8261;47.678;-122.174;2022-10-16T00:45:25;120.37;;;97.50;;
16304;SDS011;8261;47.678;-122.174;2022-10-16T00:47:57;127.37;;;105.27;;
16304;SDS011;8261;47.678;-122.174;2022-10-16T00:50:28;133.73;;;109.77;;
16304;SDS011;8261;47.678;-122.174;2022-10-16T00:53:02;133.73;;;111.30;;
16304;SDS011;8261;47.678;-122.174;2022-10-16T00:55:36;130.13;;;107.57;;
16304;SDS011;8261;47.678;-122.174;2022-10-16T00:58:08;127.30;;;105.83;;
16304;SDS011;8261;47.678;-122.174;2022-10-16T01:00:41;132.90;;;111.13;;
16304;SDS011;8261;47.678;-122.174;2022-10-16T01:03:26;138.87;;;113.03;;
16304;SDS011;8261;47.678;-122.174;2022-10-16T01:06:04;142.10;;;112.93;;
16304;SDS011;8261;47.678;-122.174;2022-10-16T01:08:50;143.70;;;116.57;;
16304;SDS011;8261;47.678;-122.174;2022-10-16T01:11:33;142.53;;;116.07;;
16304;SDS011;8261;47.678;-122.174;2022-10-16T01:14:11;148.67;;;118.47;;
16304;SDS011;8261;47.678;-122.174;2022-10-16T01:16:52;148.77;;;121.07;;
16304;SDS011;8261;47.678;-122.174;2022-10-16T01:19:34;149.67;;;122.90;;
16304;SDS011;8261;47.678;-122.174;2022-10-16T01:22:14;152.37;;;123.30;;
16304;SDS011;8261;47.678;-122.174;2022-10-16T01:24:48;156.30;;;124.63;;
16304;SDS011;8261;47.678;-122.174;2022-10-16T01:27:22;151.00;;;124.80;;
16304;SDS011;8261;47.678;-122.174;2022-10-16T01:29:59;152.37;;;124.83;;
16304;SDS011;8261;47.678;-122.174;2022-10-16T01:32:38;157.73;;;126.13;;
16304;SDS011;8261;47.678;-122.174;2022-10-16T01:35:11;158.60;;;127.33;;
16304;SDS011;8261;47.678;-122.174;2022-10-16T01:37:50;159.90;;;125.27;;
16304;SDS011;8261;47.678;-122.174;2022-10-16T01:40:26;160.57;;;127.70;;
16304;SDS011;8261;47.678;-122.174;2022-10-16T01:43:01;156.13;;;127.17;;
16304;SDS011;8261;47.678;-122.174;2022-10-16T01:45:35;165.10;;;129.83;;
16304;SDS011;8261;47.678;-122.174;2022-10-16T01:48:06;165.87;;;128.07;;
16304;SDS011;8261;47.678;-122.174;2022-10-16T01:50:39;164.17;;;127.57;;
16304;SDS011;8261;47.678;-122.174;2022-10-16T01:53:13;161.20;;;129.27;;
16304;SDS011;8261;47.678;-122.174;2022-10-16T01:55:46;156.53;;;126.63;;
16304;SDS011;8261;47.678;-122.174;2022-10-16T01:58:22;163.07;;;125.10;;
16304;SDS011;8261;47.678;-122.174;2022-10-16T02:00:55;160.73;;;125.03;;
16304;SDS011;8261;47.678;-122.174;2022-10-16T02:03:26;157.93;;;125.17;;
16304;SDS011;8261;47.678;-122.174;2022-10-16T02:05:59;164.50;;;125.47;;
16304;SDS011;8261;47.678;-122.174;2022-10-16T02:08:30;152.20;;;121.60;;
16304;SDS011;8261;47.678;-122.174;2022-10-16T02:11:02;156.73;;;121.33;;
16304;SDS011;8261;47.678;-122.174;2022-10-16T02:13:37;151.77;;;120.93;;
16304;SDS011;8261;47.678;-122.174;2022-10-16T02:16:12;150.93;;;117.67;;
16304;SDS011;8261;47.678;-122.174;2022-10-16T02:18:44;147.97;;;117.63;;
16304;SDS011;8261;47.678;-122.174;2022-10-16T02:21:16;156.23;;;120.33;;
16304;SDS011;8261;47.678;-122.174;2022-10-16T02:23:54;153.97;;;121.27;;
16304;SDS011;8261;47.678;-122.174;2022-10-16T02:26:33;152.60;;;119.50;;
16304;SDS011;8261;47.678;-122.174;2022-10-16T02:29:11;157.10;;;120.73;;
16304;SDS011;8261;47.678;-122.174;2022-10-16T02:31:45;158.77;;;119.00;;
16304;SDS011;8261;47.678;-122.174;2022-10-16T02:34:19;156.80;;;117.67;;
16304;SDS011;8261;47.678;-122.174;2022-10-16T02:36:53;154.10;;;118.03;;
16304;SDS011;8261;47.678;-122.174;2022-10-16T02:39:26;154.93;;;118.77;;
16304;SDS011;8261;47.678;-122.174;2022-10-16T02:41:58;151.87;;;118.70;;
16304;SDS011;8261;47.678;-122.174;2022-10-16T02:44:31;153.80;;;119.00;;
16304;SDS011;8261;47.678;-122.174;2022-10-16T02:47:02;147.50;;;113.73;;
16304;SDS011;8261;47.678;-122.174;2022-10-16T02:49:33;148.87;;;115.70;;
16304;SDS011;8261;47.678;-122.174;2022-10-16T02:52:05;142.33;;;112.10;;
16304;SDS011;8261;47.678;-122.174;2022-10-16T02:54:36;150.70;;;113.23;;
16304;SDS011;8261;47.678;-122.174;2022-10-16T02:57:07;141.37;;;107.80;;
16304;SDS011;8261;47.678;-122.174;2022-10-16T02:59:40;137.07;;;106.30;;
16304;SDS011;8261;47.678;-122.174;2022-10-16T03:02:12;134.03;;;100.50;;
16304;SDS011;8261;47.678;-122.174;2022-10-16T03:04:43;132.37;;;102.43;;
16304;SDS011;8261;47.678;-122.174;2022-10-16T03:07:15;126.87;;;97.23;;
16304;SDS011;8261;47.678;-122.174;2022-10-16T03:09:47;127.27;;;98.83;;
16304;SDS011;8261;47.678;-122.174;2022-10-16T03:12:19;125.73;;;93.50;;
16304;SDS011;8261;47.678;-122.174;2022-10-16T03:47:18;108.67;;;82.47;;
16304;SDS011;8261;47.678;-122.174;2022-10-16T03:52:27;103.40;;;77.43;;
16304;SDS011;8261;47.678;-122.174;2022-10-16T03:55:00;103.83;;;78.53;;
16304;SDS011;8261;47.678;-122.174;2022-10-16T03:57:33;100.80;;;75.87;;
16304;SDS011;8261;47.678;-122.174;2022-10-16T04:00:08;99.67;;;77.37;;
16304;SDS011;8261;47.678;-122.174;2022-10-16T04:02:45;98.00;;;73.07;;
16304;SDS011;8261;47.678;-122.174;2022-10-16T04:05:16;94.40;;;74.10;;
16304;SDS011;8261;47.678;-122.174;2022-10-16T04:07:51;98.43;;;72.83;;
16304;SDS011;8261;47.678;-122.174;2022-10-16T04:10:24;93.00;;;70.77;;
16304;SDS011;8261;47.678;-122.174;2022-10-16T04:12:57;96.47;;;70.57;;
16304;SDS011;8261;47.678;-122.174;2022-10-16T04:15:31;94.23;;;69.80;;
16304;SDS011;8261;47.678;-122.174;2022-10-16T04:18:07;95.07;;;70.23;;
16304;SDS011;8261;47.678;-122.174;2022-10-16T04:20:43;92.87;;;67.30;;
16304;SDS011;8261;47.678;-122.174;2022-10-16T04:23:17;93.60;;;69.97;;
16304;SDS011;8261;47.678;-122.174;2022-10-16T04:25:51;91.73;;;68.57;;
16304;SDS011;8261;47.678;-122.174;2022-10-16T04:28:25;91.40;;;65.30;;
16304;SDS011;8261;47.678;-122.174;2022-10-16T04:41:53;80.27;;;57.17;;
16304;SDS011;8261;47.678;-122.174;2022-10-16T04:44:26;77.43;;;58.50;;
16304;SDS011;8261;47.678;-122.174;2022-10-16T04:47:02;78.30;;;56.27;;
16304;SDS011;8261;47.678;-122.174;2022-10-16T04:49:33;78.20;;;57.77;;
16304;SDS011;8261;47.678;-122.174;2022-10-16T04:52:08;77.27;;;57.37;;
16304;SDS011;8261;47.678;-122.174;2022-10-16T04:54:40;79.77;;;54.30;;
16304;SDS011;8261;47.678;-122.174;2022-10-16T04:57:17;70.50;;;53.50;;
16304;SDS011;8261;47.678;-122.174;2022-10-16T04:59:53;77.30;;;53.90;;
16304;SDS011;8261;47.678;-122.174;2022-10-16T05:02:26;68.00;;;51.47;;
16304;SDS011;8261;47.678;-122.174;2022-10-16T05:04:59;71.63;;;52.87;;
16304;SDS011;8261;47.678;-122.174;2022-10-16T05:07:31;63.17;;;49.40;;
16304;SDS011;8261;47.678;-122.174;2022-10-16T05:10:04;65.07;;;49.57;;
16304;SDS011;8261;47.678;-122.174;2022-10-16T05:12:38;67.57;;;49.83;;
16304;SDS011;8261;47.678;-122.174;2022-10-16T05:15:10;66.83;;;49.50;;
16304;SDS011;8261;47.678;-122.174;2022-10-16T05:17:43;65.57;;;48.60;;
16304;SDS011;8261;47.678;-122.174;2022-10-16T05:20:16;62.87;;;46.47;;
16304;SDS011;8261;47.678;-122.174;2022-10-16T05:22:49;59.47;;;44.40;;
16304;SDS011;8261;47.678;-122.174;2022-10-16T05:25:21;58.23;;;42.67;;
16304;SDS011;8261;47.678;-122.174;2022-10-16T05:27:55;59.20;;;42.10;;
16304;SDS011;8261;47.678;-122.174;2022-10-16T05:30:29;52.03;;;39.87;;
16304;SDS011;8261;47.678;-122.174;2022-10-16T05:33:01;51.80;;;37.90;;
16304;SDS011;8261;47.678;-122.174;2022-10-16T05:41:19;50.73;;;34.53;;
16304;SDS011;8261;47.678;-122.174;2022-10-16T05:43:58;48.77;;;35.80;;
16304;SDS011;8261;47.678;-122.174;2022-10-16T06:38:16;36.67;;;25.43;;
16304;SDS011;8261;47.678;-122.174;2022-10-16T06:46:24;46.87;;;33.53;;
16304;SDS011;8261;47.678;-122.174;2022-10-16T06:48:56;43.37;;;32.77;;
16304;SDS011;8261;47.678;-122.174;2022-10-16T06:51:31;45.27;;;36.13;;
16304;SDS011;8261;47.678;-122.174;2022-10-16T06:54:14;48.63;;;36.40;;
16304;SDS011;8261;47.678;-122.174;2022-10-16T06:56:46;49.73;;;35.67;;
16304;SDS011;8261;47.678;-122.174;2022-10-16T06:59:18;47.23;;;35.90;;
16304;SDS011;8261;47.678;-122.174;2022-10-16T07:01:49;46.23;;;35.73;;
16304;SDS011;8261;47.678;-122.174;2022-10-16T07:04:22;44.83;;;33.73;;
16304;SDS011;8261;47.678;-122.174;2022-10-16T07:06:56;47.30;;;32.80;;
16304;SDS011;8261;47.678;-122.174;2022-10-16T08:22:50;33.40;;;25.53;;
16304;SDS011;8261;47.678;-122.174;2022-10-16T08:25:29;34.37;;;25.67;;
16304;SDS011;8261;47.678;-122.174;2022-10-16T08:28:06;33.70;;;23.83;;
16304;SDS011;8261;47.678;-122.174;2022-10-16T08:33:17;31.07;;;22.83;;
16304;SDS011;8261;47.678;-122.174;2022-10-16T08:35:55;30.57;;;22.70;;
16304;SDS011;8261;47.678;-122.174;2022-10-16T08:38:34;30.90;;;23.40;;
16304;SDS011;8261;47.678;-122.174;2022-10-16T08:46:24;28.73;;;20.63;;
16304;SDS011;8261;47.678;-122.174;2022-10-16T08:49:21;27.80;;;20.97;;
16304;SDS011;8261;47.678;-122.174;2022-10-16T08:52:00;26.53;;;20.37;;
16304;SDS011;8261;47.678;-122.174;2022-10-16T08:54:44;29.13;;;21.07;;
16304;SDS011;8261;47.678;-122.174;2022-10-16T08:57:30;29.43;;;20.37;;
16304;SDS011;8261;47.678;-122.174;2022-10-16T09:00:12;28.10;;;20.03;;
16304;SDS011;8261;47.678;-122.174;2022-10-16T09:03:12;27.70;;;19.80;;
16304;SDS011;8261;47.678;-122.174;2022-10-16T09:06:19;31.83;;;20.17;;
16304;SDS011;8261;47.678;-122.174;2022-10-16T09:09:06;29.93;;;20.83;;
16304;SDS011;8261;47.678;-122.174;2022-10-16T09:52:51;25.90;;;18.83;;
16304;SDS011;8261;47.678;-122.174;2022-10-16T09:55:48;26.10;;;18.80;;
16304;SDS011;8261;47.678;-122.174;2022-10-16T10:01:16;26.37;;;18.00;;
16304;SDS011;8261;47.678;-122.174;2022-10-16T10:03:59;23.80;;;17.80;;
16304;SDS011;8261;47.678;-122.174;2022-10-16T10:06:35;26.77;;;18.27;;
16304;SDS011;8261;47.678;-122.174;2022-10-16T10:09:20;27.67;;;17.37;;
16304;SDS011;8261;47.678;-122.174;2022-10-16T10:11:56;24.33;;;17.53;;
16304;SDS011;8261;47.678;-122.174;2022-10-16T10:14:37;27.17;;;18.53;;
16304;SDS011;8261;47.678;-122.174;2022-10-16T10:17:13;25.87;;;16.50;;
16304;SDS011;8261;47.678;-122.174;2022-10-16T10:19:50;23.27;;;16.73;;
16304;SDS011;8261;47.678;-122.174;2022-10-16T10:22:29;24.87;;;16.97;;
16304;SDS011;8261;47.678;-122.174;2022-10-16T10:25:18;22.00;;;16.47;;
16304;SDS011;8261;47.678;-122.174;2022-10-16T10:28:03;25.57;;;15.90;;
16304;SDS011;8261;47.678;-122.174;2022-10-16T10:31:00;21.50;;;16.30;;
16304;SDS011;8261;47.678;-122.174;2022-10-16T10:33:43;19.03;;;15.57;;
16304;SDS011;8261;47.678;-122.174;2022-10-16T10:36:27;24.10;;;16.23;;
16304;SDS011;8261;47.678;-122.174;2022-10-16T10:39:07;21.70;;;15.13;;
16304;SDS011;8261;47.678;-122.174;2022-10-16T10:41:52;23.00;;;15.10;;
16304;SDS011;8261;47.678;-122.174;2022-10-16T10:47:44;22.73;;;14.53;;
16304;SDS011;8261;47.678;-122.174;2022-10-16T10:50:25;21.33;;;14.63;;
16304;SDS011;8261;47.678;-122.174;2022-10-16T10:53:03;21.60;;;14.17;;
16304;SDS011;8261;47.678;-122.174;2022-10-16T10:55:43;20.07;;;14.83;;
16304;SDS011;8261;47.678;-122.174;2022-10-16T10:58:34;23.93;;;15.93;;
16304;SDS011;8261;47.678;-122.174;2022-10-16T11:01:31;21.87;;;15.27;;
16304;SDS011;8261;47.678;-122.174;2022-10-16T11:04:34;21.57;;;15.93;;
16304;SDS011;8261;47.678;-122.174;2022-10-16T11:07:27;22.03;;;15.73;;
16304;SDS011;8261;47.678;-122.174;2022-10-16T11:10:03;23.17;;;15.13;;
16304;SDS011;8261;47.678;-122.174;2022-10-16T11:12:44;23.93;;;15.60;;
16304;SDS011;8261;47.678;-122.174;2022-10-16T11:15:21;21.97;;;15.03;;
16304;SDS011;8261;47.678;-122.174;2022-10-16T11:17:59;22.93;;;16.17;;
16304;SDS011;8261;47.678;-122.174;2022-10-16T11:20:37;21.43;;;15.10;;
16304;SDS011;8261;47.678;-122.174;2022-10-16T11:23:14;23.17;;;16.00;;
16304;SDS011;8261;47.678;-122.174;2022-10-16T11:25:50;21.70;;;14.73;;
16304;SDS011;8261;47.678;-122.174;2022-10-16T11:28:29;21.70;;;14.70;;
16304;SDS011;8261;47.678;-122.174;2022-10-16T11:31:11;21.33;;;15.17;;
16304;SDS011;8261;47.678;-122.174;2022-10-16T11:33:54;27.67;;;14.60;;
16304;SDS011;8261;47.678;-122.174;2022-10-16T11:36:38;22.47;;;14.67;;
16304;SDS011;8261;47.678;-122.174;2022-10-16T11:39:18;24.60;;;14.57;;
16304;SDS011;8261;47.678;-122.174;2022-10-16T11:41:55;26.47;;;14.73;;
16304;SDS011;8261;47.678;-122.174;2022-10-16T11:44:38;19.80;;;14.40;;
16304;SDS011;8261;47.678;-122.174;2022-10-16T11:50:26;20.77;;;13.80;;
16304;SDS011;8261;47.678;-122.174;2022-10-16T11:53:04;20.87;;;14.33;;
16304;SDS011;8261;47.678;-122.174;2022-10-16T11:55:45;19.07;;;14.00;;
16304;SDS011;8261;47.678;-122.174;2022-10-16T11:58:20;22.73;;;14.47;;
16304;SDS011;8261;47.678;-122.174;2022-10-16T12:00:58;21.33;;;13.27;;
16304;SDS011;8261;47.678;-122.174;2022-10-16T12:03:40;18.10;;;13.70;;
16304;SDS011;8261;47.678;-122.174;2022-10-16T12:06:23;20.93;;;14.03;;
16304;SDS011;8261;47.678;-122.174;2022-10-16T12:09:02;15.73;;;13.37;;
16304;SDS011;8261;47.678;-122.174;2022-10-16T12:11:35;17.47;;;13.87;;
16304;SDS011;8261;47.678;-122.174;2022-10-16T12:14:20;22.17;;;14.93;;
16304;SDS011;8261;47.678;-122.174;2022-10-16T12:17:24;23.53;;;14.60;;
16304;SDS011;8261;47.678;-122.174;2022-10-16T12:20:17;18.47;;;14.13;;
16304;SDS011;8261;47.678;-122.174;2022-10-16T12:22:52;21.47;;;12.83;;
16304;SDS011;8261;47.678;-122.174;2022-10-16T12:25:27;17.10;;;12.87;;
16304;SDS011;8261;47.678;-122.174;2022-10-16T12:28:01;20.50;;;13.63;;
16304;SDS011;8261;47.678;-122.174;2022-10-16T12:30:36;16.60;;;12.57;;
16304;SDS011;8261;47.678;-122.174;2022-10-16T12:33:16;19.90;;;12.30;;
16304;SDS011;8261;47.678;-122.174;2022-10-16T12:35:56;16.67;;;11.63;;
16304;SDS011;8261;47.678;-122.174;2022-10-16T12:38:30;16.20;;;11.40;;
16304;SDS011;8261;47.678;-122.174;2022-10-16T12:41:09;15.70;;;11.00;;
16304;SDS011;8261;47.678;-122.174;2022-10-16T12:43:45;16.80;;;10.60;;
16304;SDS011;8261;47.678;-122.174;2022-10-16T12:49:04;16.57;;;11.23;;
16304;SDS011;8261;47.678;-122.174;2022-10-16T12:51:43;14.43;;;10.47;;
16304;SDS011;8261;47.678;-122.174;2022-10-16T12:54:18;15.07;;;10.43;;
16304;SDS011;8261;47.678;-122.174;2022-10-16T12:57:06;14.50;;;10.13;;
16304;SDS011;8261;47.678;-122.174;2022-10-16T12:59:53;16.20;;;10.60;;
16304;SDS011;8261;47.678;-122.174;2022-10-16T13:05:44;16.20;;;10.10;;
16304;SDS011;8261;47.678;-122.174;2022-10-16T13:08:34;18.67;;;11.03;;
16304;SDS011;8261;47.678;-122.174;2022-10-16T13:11:20;13.63;;;10.23;;
16304;SDS011;8261;47.678;-122.174;2022-10-16T13:14:02;16.80;;;10.57;;
16304;SDS011;8261;47.678;-122.174;2022-10-16T13:16:54;13.60;;;10.13;;
16304;SDS011;8261;47.678;-122.174;2022-10-16T13:19:33;15.60;;;10.10;;
16304;SDS011;8261;47.678;-122.174;2022-10-16T13:22:15;13.93;;;10.23;;
16304;SDS011;8261;47.678;-122.174;2022-10-16T13:25:01;15.67;;;10.13;;
16304;SDS011;8261;47.678;-122.174;2022-10-16T13:27:45;15.23;;;9.97;;
16304;SDS011;8261;47.678;-122.174;2022-10-16T13:30:25;16.23;;;9.30;;
16304;SDS011;8261;47.678;-122.174;2022-10-16T13:38:24;14.27;;;8.93;;
16304;SDS011;8261;47.678;-122.174;2022-10-16T13:43:29;13.23;;;8.53;;
16304;SDS011;8261;47.678;-122.174;2022-10-16T13:46:10;13.70;;;9.20;;
16304;SDS011;8261;47.678;-122.174;2022-10-16T13:48:56;13.33;;;8.60;;
16304;SDS011;8261;47.678;-122.174;2022-10-16T13:51:32;13.10;;;8.23;;
16304;SDS011;8261;47.678;-122.174;2022-10-16T13:54:04;14.07;;;8.43;;
16304;SDS011;8261;47.678;-122.174;2022-10-16T14:45:18;9.47;;;6.63;;
16304;SDS011;8261;47.678;-122.174;2022-10-16T14:47:54;12.23;;;7.30;;
16304;SDS011;8261;47.678;-122.174;2022-10-16T14:50:30;10.50;;;7.07;;
16304;SDS011;8261;47.678;-122.174;2022-10-16T14:53:12;8.23;;;6.40;;
16304;SDS011;8261;47.678;-122.174;2022-10-16T14:55:45;8.23;;;6.63;;
16304;SDS011;8261;47.678;-122.174;2022-10-16T14:58:19;9.23;;;6.67;;
16304;SDS011;8261;47.678;-122.174;2022-10-16T15:00:56;8.20;;;7.00;;
16304;SDS011;8261;47.678;-122.174;2022-10-16T15:03:31;11.70;;;7.07;;
16304;SDS011;8261;47.678;-122.174;2022-10-16T15:08:58;10.40;;;7.40;;
16304;SDS011;8261;47.678;-122.174;2022-10-16T15:11:39;10.47;;;7.73;;
16304;SDS011;8261;47.678;-122.174;2022-10-16T15:52:09;9.13;;;5.90;;
16304;SDS011;8261;47.678;-122.174;2022-10-16T16:02:48;7.73;;;5.37;;
16304;SDS011;8261;47.678;-122.174;2022-10-16T16:05:22;6.97;;;5.23;;
16304;SDS011;8261;47.678;-122.174;2022-10-16T16:07:56;8.23;;;5.67;;
16304;SDS011;8261;47.678;-122.174;2022-10-16T16:10:27;10.70;;;5.07;;
16304;SDS011;8261;47.678;-122.174;2022-10-16T16:12:59;7.70;;;5.50;;
16304;SDS011;8261;47.678;-122.174;2022-10-16T16:15:31;6.77;;;5.30;;
16304;SDS011;8261;47.678;-122.174;2022-10-16T16:18:02;9.20;;;5.27;;
16304;SDS011;8261;47.678;-122.174;2022-10-16T16:20:34;7.23;;;5.30;;
16304;SDS011;8261;47.678;-122.174;2022-10-16T16:23:13;10.73;;;4.87;;
16304;SDS011;8261;47.678;-122.174;2022-10-16T16:25:45;8.30;;;5.27;;
16304;SDS011;8261;47.678;-122.174;2022-10-16T16:28:36;9.23;;;5.20;;
16304;SDS011;8261;47.678;-122.174;2022-10-16T16:31:08;6.87;;;4.80;;
16304;SDS011;8261;47.678;-122.174;2022-10-16T16:33:39;7.50;;;5.03;;
16304;SDS011;8261;47.678;-122.174;2022-10-16T16:36:10;9.00;;;4.87;;
16304;SDS011;8261;47.678;-122.174;2022-10-16T16:38:44;5.97;;;5.23;;
16304;SDS011;8261;47.678;-122.174;2022-10-16T16:41:15;7.03;;;5.27;;
16304;SDS011;8261;47.678;-122.174;2022-10-16T16:43:48;7.00;;;4.97;;
16304;SDS011;8261;47.678;-122.174;2022-10-16T16:46:19;5.07;;;4.53;;
16304;SDS011;8261;47.678;-122.174;2022-10-16T16:48:52;6.70;;;5.07;;
16304;SDS011;8261;47.678;-122.174;2022-10-16T16:51:23;8.53;;;5.40;;
16304;SDS011;8261;47.678;-122.174;2022-10-16T16:53:57;7.03;;;5.07;;
16304;SDS011;8261;47.678;-122.174;2022-10-16T16:56:34;7.70;;;5.33;;
16304;SDS011;8261;47.678;-122.174;2022-10-16T16:59:11;7.10;;;4.97;;
16304;SDS011;8261;47.678;-122.174;2022-10-16T17:01:45;7.93;;;5.20;;
16304;SDS011;8261;47.678;-122.174;2022-10-16T17:04:23;7.93;;;5.50;;
16304;SDS011;8261;47.678;-122.174;2022-10-16T17:06:57;7.70;;;5.00;;
16304;SDS011;8261;47.678;-122.174;2022-10-16T17:09:33;9.03;;;5.50;;
16304;SDS011;8261;47.678;-122.174;2022-10-16T17:12:08;6.27;;;4.57;;
16304;SDS011;8261;47.678;-122.174;2022-10-16T17:14:40;7.87;;;5.17;;
16304;SDS011;8261;47.678;-122.174;2022-10-16T17:17:11;6.27;;;4.77;;
16304;SDS011;8261;47.678;-122.174;2022-10-16T17:19:43;7.03;;;5.03;;
16304;SDS011;8261;47.678;-122.174;2022-10-16T17:22:16;8.67;;;5.27;;
16304;SDS011;8261;47.678;-122.174;2022-10-16T17:24:50;9.23;;;4.93;;
16304;SDS011;8261;47.678;-122.174;2022-10-16T17:27:23;8.33;;;4.90;;
16304;SDS011;8261;47.678;-122.174;2022-10-16T17:29:56;7.80;;;4.03;;
16304;SDS011;8261;47.678;-122.174;2022-10-16T17:32:28;5.03;;;3.40;;
16304;SDS011;8261;47.678;-122.174;2022-10-16T17:35:00;5.50;;;3.60;;
16304;SDS011;8261;47.678;-122.174;2022-10-16T17:37:37;6.33;;;3.23;;
16304;SDS011;8261;47.678;-122.174;2022-10-16T17:40:19;8.80;;;3.90;;
16304;SDS011;8261;47.678;-122.174;2022-10-16T17:42:50;6.40;;;3.10;;
16304;SDS011;8261;47.678;-122.174;2022-10-16T17:45:23;9.43;;;3.10;;
16304;SDS011;8261;47.678;-122.174;2022-10-16T17:47:57;7.27;;;3.70;;
16304;SDS011;8261;47.678;-122.174;2022-10-16T17:50:28;5.13;;;3.40;;
16304;SDS011;8261;47.678;-122.174;2022-10-16T17:53:03;8.03;;;3.20;;
16304;SDS011;8261;47.678;-122.174;2022-10-16T17:55:41;4.20;;;3.13;;
16304;SDS011;8261;47.678;-122.174;2022-10-16T17:58:12;4.73;;;2.70;;
16304;SDS011;8261;47.678;-122.174;2022-10-16T18:00:47;6.50;;;3.70;;
16304;SDS011;8261;47.678;-122.174;2022-10-16T18:03:18;9.37;;;3.80;;
16304;SDS011;8261;47.678;-122.174;2022-10-16T18:05:51;4.60;;;3.23;;
16304;SDS011;8261;47.678;-122.174;2022-10-16T18:08:24;9.27;;;2.90;;
16304;SDS011;8261;47.678;-122.174;2022-10-16T18:10:58;4.87;;;3.20;;
16304;SDS011;8261;47.678;-122.174;2022-10-16T18:13:31;5.40;;;2.70;;
16304;SDS011;8261;47.678;-122.174;2022-10-16T18:16:04;5.20;;;2.70;;
16304;SDS011;8261;47.678;-122.174;2022-10-16T18:18:39;3.10;;;2.80;;
16304;SDS011;8261;47.678;-122.174;2022-10-16T18:21:15;3.63;;;2.40;;
16304;SDS011;8261;47.678;-122.174;2022-10-16T18:23:47;2.87;;;2.33;;
16304;SDS011;8261;47.678;-122.174;2022-10-16T18:26:22;6.37;;;2.33;;
16304;SDS011;8261;47.678;-122.174;2022-10-16T18:28:54;6.23;;;2.70;;
16304;SDS011;8261;47.678;-122.174;2022-10-16T18:31:27;4.27;;;2.30;;
16304;SDS011;8261;47.678;-122.174;2022-10-16T18:33:59;2.90;;;1.90;;
16304;SDS011;8261;47.678;-122.174;2022-10-16T18:36:32;3.27;;;2.30;;
16304;SDS011;8261;47.678;-122.174;2022-10-16T18:39:05;3.50;;;2.60;;
16304;SDS011;8261;47.678;-122.174;2022-10-16T18:41:41;3.90;;;2.80;;
16304;SDS011;8261;47.678;-122.174;2022-10-16T18:44:15;3.97;;;2.63;;
16304;SDS011;8261;47.678;-122.174;2022-10-16T18:46:46;2.83;;;2.50;;
16304;SDS011;8261;47.678;-122.174;2022-10-16T18:49:19;5.80;;;2.80;;
16304;SDS011;8261;47.678;-122.174;2022-10-16T18:51:52;4.47;;;2.50;;
16304;SDS011;8261;47.678;-122.174;2022-10-16T18:54:24;4.97;;;2.60;;
16304;SDS011;8261;47.678;-122.174;2022-10-16T18:56:58;5.87;;;3.00;;
16304;SDS011;8261;47.678;-122.174;2022-10-16T18:59:30;3.50;;;2.63;;
16304;SDS011;8261;47.678;-122.174;2022-10-16T19:02:02;3.50;;;2.27;;
16304;SDS011;8261;47.678;-122.174;2022-10-16T19:04:34;7.37;;;2.17;;
16304;SDS011;8261;47.678;-122.174;2022-10-16T19:07:06;5.43;;;2.70;;
16304;SDS011;8261;47.678;-122.174;2022-10-16T19:09:37;5.20;;;2.90;;
16304;SDS011;8261;47.678;-122.174;2022-10-16T19:12:12;6.30;;;2.43;;
16304;SDS011;8261;47.678;-122.174;2022-10-16T19:14:43;4.60;;;2.50;;
16304;SDS011;8261;47.678;-122.174;2022-10-16T19:17:17;2.50;;;2.30;;
16304;SDS011;8261;47.678;-122.174;2022-10-16T19:19:48;5.40;;;2.17;;
16304;SDS011;8261;47.678;-122.174;2022-10-16T19:22:19;3.97;;;2.67;;
16304;SDS011;8261;47.678;-122.174;2022-10-16T19:25:08;6.10;;;2.60;;
16304;SDS011;8261;47.678;-122.174;2022-10-16T19:27:42;2.93;;;2.47;;
16304;SDS011;8261;47.678;-122.174;2022-10-16T19:30:13;5.40;;;2.57;;
16304;SDS011;8261;47.678;-122.174;2022-10-16T19:32:45;3.43;;;2.33;;
16304;SDS011;8261;47.678;-122.174;2022-10-16T19:35:16;3.93;;;2.60;;
16304;SDS011;8261;47.678;-122.174;2022-10-16T19:37:48;4.60;;;3.00;;
16304;SDS011;8261;47.678;-122.174;2022-10-16T19:40:21;5.33;;;2.50;;
16304;SDS011;8261;47.678;-122.174;2022-10-16T19:42:55;9.30;;;5.00;;
16304;SDS011;8261;47.678;-122.174;2022-10-16T19:45:27;7.77;;;5.80;;
16304;SDS011;8261;47.678;-122.174;2022-10-16T19:47:59;8.20;;;6.13;;
16304;SDS011;8261;47.678;-122.174;2022-10-16T19:50:30;9.67;;;6.47;;
16304;SDS011;8261;47.678;-122.174;2022-10-16T19:53:02;11.13;;;6.77;;
16304;SDS011;8261;47.678;-122.174;2022-10-16T19:55:34;11.03;;;6.67;;
16304;SDS011;8261;47.678;-122.174;2022-10-16T20:14:24;7.23;;;6.03;;
16304;SDS011;8261;47.678;-122.174;2022-10-16T20:16:57;11.30;;;5.50;;
16304;SDS011;8261;47.678;-122.174;2022-10-16T20:19:43;5.57;;;4.90;;
16304;SDS011;8261;47.678;-122.174;2022-10-16T20:49:43;9.03;;;6.43;;
16304;SDS011;8261;47.678;-122.174;2022-10-16T22:07:49;6.47;;;5.50;;
16304;SDS011;8261;47.678;-122.174;2022-10-16T22:10:20;6.82;;;5.22;;
16304;SDS011;8261;47.678;-122.174;2022-10-16T22:12:51;9.07;;;5.80;;
16304;SDS011;8261;47.678;-122.174;2022-10-16T22:15:23;5.55;;;5.05;;
16304;SDS011;8261;47.678;-122.174;2022-10-16T22:17:54;5.32;;;4.82;;
16304;SDS011;8261;47.678;-122.174;2022-10-16T22:20:25;4.28;;;3.40;;
16304;SDS011;8261;47.678;-122.174;2022-10-16T22:22:59;3.83;;;2.90;;
16304;SDS011;8261;47.678;-122.174;2022-10-16T22:25:32;4.60;;;2.75;;
16304;SDS011;8261;47.678;-122.174;2022-10-16T22:28:03;2.85;;;2.55;;
16304;SDS011;8261;47.678;-122.174;2022-10-16T22:30:35;3.08;;;2.72;;
16304;SDS011;8261;47.678;-122.174;2022-10-16T22:33:06;5.47;;;2.42;;
16304;SDS011;8261;47.678;-122.174;2022-10-16T22:35:38;2.70;;;2.40;;
16304;SDS011;8261;47.678;-122.174;2022-10-16T22:38:13;3.28;;;2.72;;
16304;SDS011;8261;47.678;-122.174;2022-10-16T22:40:46;3.88;;;2.50;;
16304;SDS011;8261;47.678;-122.174;2022-10-16T22:43:19;3.17;;;2.40;;